sensor_id;sensor_type;location;lat;lon;timestamp;pressure;altitude;pressure_sealevel;temperature;humidity
35910;BME280;22004;49.120;-0.200;2023-08-12T10:36:41;101632.34;;;25.58;56.76
35910;BME280;22004;49.120;-0.200;2023-08-12T10:39:08;101634.97;;;25.21;57.43
35910;BME280;22004;49.120;-0.200;2023-08-12T10:41:35;101642.03;;;24.06;64.05
35910;BME280;22004;49.120;-0.200;2023-08-12T10:44:03;101639.81;;;24.19;59.75
35910;BME280;22004;49.120;-0.200;2023-08-12T10:46:36;101633.91;;;24.28;61.71
35910;BME280;22004;49.120;-0.200;2023-08-12T10:49:09;101632.63;;;23.85;59.47
35910;BME280;22004;49.120;-0.200;2023-08-12T10:51:42;101633.81;;;22.56;64.04
35910;BME280;22004;49.120;-0.200;2023-08-12T10:54:28;101636.47;;;24.68;60.14
35910;BME280;22004;49.120;-0.200;2023-08-12T11:02:18;101629.97;;;24.07;59.98
35910;BME280;22004;49.120;-0.200;2023-08-12T11:04:48;101630.06;;;23.78;58.88
35910;BME280;22004;49.120;-0.200;2023-08-12T11:07:21;101624.38;;;24.69;58.01
35910;BME280;22004;49.120;-0.200;2023-08-12T11:09:51;101617.16;;;24.63;60.31
35910;BME280;22004;49.120;-0.200;2023-08-12T11:12:18;101619.97;;;23.67;60.30
35910;BME280;22004;49.120;-0.200;2023-08-12T11:14:53;101629.38;;;23.71;59.85
35910;BME280;22004;49.120;-0.200;2023-08-12T11:17:18;101628.34;;;24.78;58.74
35910;BME280;22004;49.120;-0.200;2023-08-12T11:19:44;101619.72;;;23.40;60.26
35910;BME280;22004;49.120;-0.200;2023-08-12T11:22:09;101620.69;;;23.34;60.12
35910;BME280;22004;49.120;-0.200;2023-08-12T11:24:40;101625.25;;;22.53;62.16
35910;BME280;22004;49.120;-0.200;2023-08-12T11:27:09;101620.84;;;22.52;62.15
35910;BME280;22004;49.120;-0.200;2023-08-12T11:29:34;101626.97;;;22.82;59.70
35910;BME280;22004;49.120;-0.200;2023-08-12T11:31:59;101623.59;;;22.28;62.78
35910;BME280;22004;49.120;-0.200;2023-08-12T11:34:26;101627.19;;;21.99;65.03
35910;BME280;22004;49.120;-0.200;2023-08-12T11:36:51;101633.44;;;22.64;65.79
35910;BME280;22004;49.120;-0.200;2023-08-12T11:39:17;101616.88;;;22.94;64.77
35910;BME280;22004;49.120;-0.200;2023-08-12T11:41:42;101622.47;;;23.00;60.74
35910;BME280;22004;49.120;-0.200;2023-08-12T11:44:15;101618.13;;;22.28;62.21
35910;BME280;22004;49.120;-0.200;2023-08-12T11:46:41;101624.28;;;22.47;67.59
35910;BME280;22004;49.120;-0.200;2023-08-12T11:49:06;101626.19;;;22.23;66.75
35910;BME280;22004;49.120;-0.200;2023-08-12T11:51:32;101635.41;;;22.10;67.45
35910;BME280;22004;49.120;-0.200;2023-08-12T11:53:58;101634.09;;;23.76;63.80
35910;BME280;22004;49.120;-0.200;2023-08-12T11:56:24;101626.03;;;23.69;62.01
35910;BME280;22004;49.120;-0.200;2023-08-12T11:58:51;101618.09;;;22.63;61.09
35910;BME280;22004;49.120;-0.200;2023-08-12T12:01:20;101626.66;;;22.20;62.81
35910;BME280;22004;49.120;-0.200;2023-08-12T12:03:51;101631.94;;;21.91;65.60
35910;BME280;22004;49.120;-0.200;2023-08-12T12:06:16;101632.59;;;22.99;62.46
35910;BME280;22004;49.120;-0.200;2023-08-12T12:08:44;101641.31;;;23.65;57.90
35910;BME280;22004;49.120;-0.200;2023-08-12T12:11:09;101631.28;;;22.66;56.81
35910;BME280;22004;49.120;-0.200;2023-08-12T12:13:35;101638.88;;;22.17;63.36
35910;BME280;22004;49.120;-0.200;2023-08-12T12:16:01;101637.91;;;23.46;57.98
35910;BME280;22004;49.120;-0.200;2023-08-12T12:18:26;101643.03;;;24.50;58.75
35910;BME280;22004;49.120;-0.200;2023-08-12T12:20:58;101643.13;;;24.55;58.35
35910;BME280;22004;49.120;-0.200;2023-08-12T12:23:31;101638.72;;;24.93;53.42
35910;BME280;22004;49.120;-0.200;2023-08-12T12:26:00;101643.50;;;25.02;54.91
35910;BME280;22004;49.120;-0.200;2023-08-12T12:28:25;101639.06;;;24.07;55.20
35910;BME280;22004;49.120;-0.200;2023-08-12T12:30:51;101629.34;;;23.02;59.04
35910;BME280;22004;49.120;-0.200;2023-08-12T12:33:16;101639.94;;;23.10;64.02
35910;BME280;22004;49.120;-0.200;2023-08-12T12:35:42;101645.38;;;23.22;61.62
35910;BME280;22004;49.120;-0.200;2023-08-12T12:38:07;101646.13;;;23.17;63.33
35910;BME280;22004;49.120;-0.200;2023-08-12T12:40:32;101644.75;;;22.91;59.88
35910;BME280;22004;49.120;-0.200;2023-08-12T12:42:58;101655.22;;;23.75;61.14
35910;BME280;22004;49.120;-0.200;2023-08-12T12:45:24;101650.44;;;24.49;60.60
35910;BME280;22004;49.120;-0.200;2023-08-12T12:47:49;101644.84;;;23.77;61.08
35910;BME280;22004;49.120;-0.200;2023-08-12T12:50:14;101645.31;;;22.82;64.10
35910;BME280;22004;49.120;-0.200;2023-08-12T12:52:40;101659.03;;;22.35;64.85
35910;BME280;22004;49.120;-0.200;2023-08-12T12:55:06;101662.13;;;21.97;64.64
35910;BME280;22004;49.120;-0.200;2023-08-12T12:57:32;101654.28;;;21.88;67.34
35910;BME280;22004;49.120;-0.200;2023-08-12T12:59:57;101651.88;;;21.80;66.75
35910;BME280;22004;49.120;-0.200;2023-08-12T13:02:22;101659.78;;;22.00;65.79
35910;BME280;22004;49.120;-0.200;2023-08-12T13:04:48;101661.50;;;22.36;65.04
35910;BME280;22004;49.120;-0.200;2023-08-12T13:07:15;101659.44;;;23.26;64.23
35910;BME280;22004;49.120;-0.200;2023-08-12T13:09:40;101662.97;;;23.38;62.59
35910;BME280;22004;49.120;-0.200;2023-08-12T13:12:06;101654.97;;;22.61;62.91
35910;BME280;22004;49.120;-0.200;2023-08-12T13:14:31;101655.56;;;22.51;64.69
35910;BME280;22004;49.120;-0.200;2023-08-12T13:16:56;101664.00;;;22.26;65.20
35910;BME280;22004;49.120;-0.200;2023-08-12T13:19:22;101667.53;;;22.03;67.02
35910;BME280;22004;49.120;-0.200;2023-08-12T13:21:47;101666.75;;;21.84;66.22
35910;BME280;22004;49.120;-0.200;2023-08-12T13:24:12;101671.94;;;21.74;67.75
35910;BME280;22004;49.120;-0.200;2023-08-12T13:26:38;101675.09;;;21.59;67.22
35910;BME280;22004;49.120;-0.200;2023-08-12T13:29:03;101671.78;;;21.39;68.22
35910;BME280;22004;49.120;-0.200;2023-08-12T13:31:29;101677.31;;;21.51;68.69
35910;BME280;22004;49.120;-0.200;2023-08-12T13:33:54;101672.72;;;21.63;68.15
35910;BME280;22004;49.120;-0.200;2023-08-12T13:36:19;101671.31;;;21.72;66.66
35910;BME280;22004;49.120;-0.200;2023-08-12T13:38:45;101664.16;;;21.59;66.84
35910;BME280;22004;49.120;-0.200;2023-08-12T13:41:10;101665.03;;;21.41;67.62
35910;BME280;22004;49.120;-0.200;2023-08-12T13:43:35;101668.91;;;21.34;68.07
35910;BME280;22004;49.120;-0.200;2023-08-12T13:46:01;101671.03;;;21.32;67.21
35910;BME280;22004;49.120;-0.200;2023-08-12T13:48:27;101665.94;;;21.35;65.79
35910;BME280;22004;49.120;-0.200;2023-08-12T13:50:53;101662.56;;;21.52;65.75
35910;BME280;22004;49.120;-0.200;2023-08-12T13:53:18;101673.88;;;21.85;65.81
35910;BME280;22004;49.120;-0.200;2023-08-12T13:55:44;101673.03;;;21.85;65.10
35910;BME280;22004;49.120;-0.200;2023-08-12T13:58:09;101670.50;;;21.72;65.14
35910;BME280;22004;49.120;-0.200;2023-08-12T14:00:35;101670.03;;;21.75;66.09
35910;BME280;22004;49.120;-0.200;2023-08-12T14:03:00;101673.16;;;21.78;66.41
35910;BME280;22004;49.120;-0.200;2023-08-12T14:05:25;101671.38;;;21.84;65.89
35910;BME280;22004;49.120;-0.200;2023-08-12T14:07:51;101667.63;;;21.66;64.52
35910;BME280;22004;49.120;-0.200;2023-08-12T14:10:16;101663.06;;;21.49;64.01
35910;BME280;22004;49.120;-0.200;2023-08-12T14:12:41;101659.97;;;21.57;65.38
35910;BME280;22004;49.120;-0.200;2023-08-12T14:15:07;101668.28;;;21.50;66.35
35910;BME280;22004;49.120;-0.200;2023-08-12T14:17:32;101665.78;;;21.79;65.91
35910;BME280;22004;49.120;-0.200;2023-08-12T14:19:58;101670.19;;;21.91;66.11
35910;BME280;22004;49.120;-0.200;2023-08-12T14:22:25;101663.78;;;21.86;63.34
35910;BME280;22004;49.120;-0.200;2023-08-12T14:24:51;101671.28;;;21.90;62.02
35910;BME280;22004;49.120;-0.200;2023-08-12T14:27:16;101667.84;;;22.07;63.01
35910;BME280;22004;49.120;-0.200;2023-08-12T14:29:45;101669.72;;;22.13;61.27
35910;BME280;22004;49.120;-0.200;2023-08-12T14:32:11;101669.25;;;21.98;61.46
35910;BME280;22004;49.120;-0.200;2023-08-12T14:34:36;101669.38;;;21.91;62.55
35910;BME280;22004;49.120;-0.200;2023-08-12T14:37:02;101674.94;;;21.84;62.65
35910;BME280;22004;49.120;-0.200;2023-08-12T14:39:28;101673.75;;;21.92;62.92
35910;BME280;22004;49.120;-0.200;2023-08-12T14:41:53;101673.94;;;22.09;61.60
35910;BME280;22004;49.120;-0.200;2023-08-12T14:44:19;101667.94;;;22.18;62.67
35910;BME280;22004;49.120;-0.200;2023-08-12T14:46:44;101670.91;;;22.29;62.69
35910;BME280;22004;49.120;-0.200;2023-08-12T14:49:09;101665.66;;;22.15;62.63
35910;BME280;22004;49.120;-0.200;2023-08-12T14:51:35;101667.09;;;22.30;62.58
35910;BME280;22004;49.120;-0.200;2023-08-12T14:54:00;101672.66;;;22.11;63.17
35910;BME280;22004;49.120;-0.200;2023-08-12T14:56:26;101663.28;;;22.31;62.32
35910;BME280;22004;49.120;-0.200;2023-08-12T14:58:51;101662.47;;;22.42;60.77
35910;BME280;22004;49.120;-0.200;2023-08-12T15:01:16;101659.25;;;22.57;62.17
35910;BME280;22004;49.120;-0.200;2023-08-12T15:03:42;101659.72;;;22.42;63.70
35910;BME280;22004;49.120;-0.200;2023-08-12T15:06:07;101652.25;;;22.73;63.06
35910;BME280;22004;49.120;-0.200;2023-08-12T15:08:32;101651.66;;;22.47;61.36
35910;BME280;22004;49.120;-0.200;2023-08-12T15:10:58;101653.53;;;22.82;62.46
35910;BME280;22004;49.120;-0.200;2023-08-12T15:13:25;101650.69;;;22.41;63.92
35910;BME280;22004;49.120;-0.200;2023-08-12T15:15:50;101653.91;;;22.27;61.84
35910;BME280;22004;49.120;-0.200;2023-08-12T15:18:16;101645.69;;;22.15;63.25
35910;BME280;22004;49.120;-0.200;2023-08-12T15:20:42;101645.22;;;22.18;63.10
35910;BME280;22004;49.120;-0.200;2023-08-12T15:23:07;101641.16;;;22.32;64.44
35910;BME280;22004;49.120;-0.200;2023-08-12T15:25:33;101652.59;;;22.29;64.81
35910;BME280;22004;49.120;-0.200;2023-08-12T15:27:58;101655.91;;;22.19;63.53
35910;BME280;22004;49.120;-0.200;2023-08-12T15:30:23;101657.44;;;22.15;64.23
35910;BME280;22004;49.120;-0.200;2023-08-12T15:32:49;101646.69;;;22.02;65.07
35910;BME280;22004;49.120;-0.200;2023-08-12T15:35:14;101649.22;;;22.04;64.48
35910;BME280;22004;49.120;-0.200;2023-08-12T15:37:40;101654.41;;;21.93;64.41
35910;BME280;22004;49.120;-0.200;2023-08-12T15:40:05;101653.34;;;22.06;65.96
35910;BME280;22004;49.120;-0.200;2023-08-12T15:42:32;101644.91;;;21.96;65.31
35910;BME280;22004;49.120;-0.200;2023-08-12T15:44:58;101657.88;;;22.01;64.47
35910;BME280;22004;49.120;-0.200;2023-08-12T15:47:24;101654.34;;;22.12;65.55
35910;BME280;22004;49.120;-0.200;2023-08-12T15:49:49;101655.63;;;22.09;64.32
35910;BME280;22004;49.120;-0.200;2023-08-12T15:52:14;101650.06;;;22.16;64.95
35910;BME280;22004;49.120;-0.200;2023-08-12T15:54:40;101647.50;;;22.03;64.71
35910;BME280;22004;49.120;-0.200;2023-08-12T15:57:05;101648.16;;;22.16;64.95
35910;BME280;22004;49.120;-0.200;2023-08-12T15:59:31;101655.34;;;22.29;64.49
35910;BME280;22004;49.120;-0.200;2023-08-12T16:01:56;101648.41;;;22.15;67.19
35910;BME280;22004;49.120;-0.200;2023-08-12T16:04:21;101641.56;;;21.94;65.69
35910;BME280;22004;49.120;-0.200;2023-08-12T16:06:47;101645.38;;;21.93;66.53
35910;BME280;22004;49.120;-0.200;2023-08-12T16:09:12;101637.50;;;21.85;67.46
35910;BME280;22004;49.120;-0.200;2023-08-12T16:11:38;101630.16;;;21.97;67.05
35910;BME280;22004;49.120;-0.200;2023-08-12T16:14:04;101639.41;;;21.84;66.95
35910;BME280;22004;49.120;-0.200;2023-08-12T16:16:29;101632.03;;;21.85;67.08
35910;BME280;22004;49.120;-0.200;2023-08-12T16:18:54;101630.56;;;21.71;65.99
35910;BME280;22004;49.120;-0.200;2023-08-12T16:21:20;101637.63;;;21.78;67.35
35910;BME280;22004;49.120;-0.200;2023-08-12T16:23:45;101635.47;;;21.80;67.44
35910;BME280;22004;49.120;-0.200;2023-08-12T16:26:11;101629.13;;;21.68;67.25
35910;BME280;22004;49.120;-0.200;2023-08-12T16:28:36;101623.75;;;21.61;67.23
35910;BME280;22004;49.120;-0.200;2023-08-12T16:31:02;101625.66;;;21.61;67.57
35910;BME280;22004;49.120;-0.200;2023-08-12T16:33:28;101625.41;;;21.62;66.90
35910;BME280;22004;49.120;-0.200;2023-08-12T16:35:53;101618.13;;;21.75;68.11
35910;BME280;22004;49.120;-0.200;2023-08-12T16:38:18;101625.81;;;21.78;68.08
35910;BME280;22004;49.120;-0.200;2023-08-12T16:40:46;101621.53;;;21.70;68.13
35910;BME280;22004;49.120;-0.200;2023-08-12T16:43:11;101625.56;;;21.67;68.40
35910;BME280;22004;49.120;-0.200;2023-08-12T16:45:37;101613.66;;;21.62;68.42
35910;BME280;22004;49.120;-0.200;2023-08-12T16:48:02;101621.66;;;21.63;68.53
35910;BME280;22004;49.120;-0.200;2023-08-12T16:50:28;101620.31;;;21.54;67.80
35910;BME280;22004;49.120;-0.200;2023-08-12T16:52:53;101615.91;;;21.53;68.73
35910;BME280;22004;49.120;-0.200;2023-08-12T16:55:18;101619.56;;;21.47;68.24
35910;BME280;22004;49.120;-0.200;2023-08-12T16:57:44;101614.91;;;21.48;68.74
35910;BME280;22004;49.120;-0.200;2023-08-12T17:00:09;101609.78;;;21.39;68.56
35910;BME280;22004;49.120;-0.200;2023-08-12T17:02:36;101605.44;;;21.50;68.52
35910;BME280;22004;49.120;-0.200;2023-08-12T17:05:01;101610.22;;;21.55;68.17
35910;BME280;22004;49.120;-0.200;2023-08-12T17:07:26;101606.78;;;21.59;68.95
35910;BME280;22004;49.120;-0.200;2023-08-12T17:09:52;101616.19;;;21.63;68.38
35910;BME280;22004;49.120;-0.200;2023-08-12T17:12:18;101617.56;;;21.54;68.60
35910;BME280;22004;49.120;-0.200;2023-08-12T17:14:43;101612.88;;;21.43;68.56
35910;BME280;22004;49.120;-0.200;2023-08-12T17:17:08;101617.75;;;21.41;68.74
35910;BME280;22004;49.120;-0.200;2023-08-12T17:19:34;101616.47;;;21.44;68.93
35910;BME280;22004;49.120;-0.200;2023-08-12T17:22:01;101613.66;;;21.32;69.30
35910;BME280;22004;49.120;-0.200;2023-08-12T17:24:26;101610.50;;;21.35;70.41
35910;BME280;22004;49.120;-0.200;2023-08-12T17:26:52;101603.66;;;21.26;69.14
35910;BME280;22004;49.120;-0.200;2023-08-12T17:29:18;101604.22;;;21.28;69.61
35910;BME280;22004;49.120;-0.200;2023-08-12T17:31:43;101610.75;;;21.27;69.68
35910;BME280;22004;49.120;-0.200;2023-08-12T17:34:08;101599.69;;;21.22;69.70
35910;BME280;22004;49.120;-0.200;2023-08-12T17:36:34;101594.94;;;21.35;70.72
35910;BME280;22004;49.120;-0.200;2023-08-12T17:38:59;101584.63;;;21.19;70.22
35910;BME280;22004;49.120;-0.200;2023-08-12T17:41:24;101592.53;;;21.09;70.42
35910;BME280;22004;49.120;-0.200;2023-08-12T17:43:50;101596.13;;;21.21;70.62
35910;BME280;22004;49.120;-0.200;2023-08-12T17:46:15;101588.25;;;21.13;70.12
35910;BME280;22004;49.120;-0.200;2023-08-12T17:48:41;101583.28;;;21.10;69.88
35910;BME280;22004;49.120;-0.200;2023-08-12T17:51:06;101590.69;;;21.03;70.05
35910;BME280;22004;49.120;-0.200;2023-08-12T17:53:43;101599.31;;;21.18;71.25
35910;BME280;22004;49.120;-0.200;2023-08-12T17:56:09;101606.38;;;21.07;71.60
35910;BME280;22004;49.120;-0.200;2023-08-12T17:58:35;101596.31;;;21.08;71.08
35910;BME280;22004;49.120;-0.200;2023-08-12T18:01:00;101594.09;;;20.98;71.24
35910;BME280;22004;49.120;-0.200;2023-08-12T18:03:25;101593.56;;;21.08;71.33
35910;BME280;22004;49.120;-0.200;2023-08-12T18:05:51;101589.88;;;21.02;70.08
35910;BME280;22004;49.120;-0.200;2023-08-12T18:08:16;101578.81;;;20.97;71.57
35910;BME280;22004;49.120;-0.200;2023-08-12T18:10:43;101582.00;;;20.94;72.00
35910;BME280;22004;49.120;-0.200;2023-08-12T18:13:08;101593.97;;;20.93;72.46
35910;BME280;22004;49.120;-0.200;2023-08-12T18:15:34;101591.31;;;20.86;73.66
35910;BME280;22004;49.120;-0.200;2023-08-12T18:17:59;101592.09;;;20.75;72.28
35910;BME280;22004;49.120;-0.200;2023-08-12T18:20:25;101588.16;;;20.71;72.59
35910;BME280;22004;49.120;-0.200;2023-08-12T18:22:51;101593.84;;;20.70;72.81
35910;BME280;22004;49.120;-0.200;2023-08-12T18:25:16;101584.13;;;20.55;71.77
35910;BME280;22004;49.120;-0.200;2023-08-12T18:27:42;101576.00;;;20.67;72.74
35910;BME280;22004;49.120;-0.200;2023-08-12T18:30:07;101577.75;;;20.61;74.20
35910;BME280;22004;49.120;-0.200;2023-08-12T18:32:33;101591.84;;;20.58;74.01
35910;BME280;22004;49.120;-0.200;2023-08-12T18:34:58;101594.56;;;20.58;74.68
35910;BME280;22004;49.120;-0.200;2023-08-12T18:37:24;101596.69;;;20.56;74.44
35910;BME280;22004;49.120;-0.200;2023-08-12T18:39:49;101597.91;;;20.60;74.37
35910;BME280;22004;49.120;-0.200;2023-08-12T18:42:15;101585.78;;;20.56;74.96
35910;BME280;22004;49.120;-0.200;2023-08-12T18:44:40;101591.25;;;20.56;74.38
35910;BME280;22004;49.120;-0.200;2023-08-12T18:47:05;101588.38;;;20.51;75.91
35910;BME280;22004;49.120;-0.200;2023-08-12T18:49:31;101584.41;;;20.47;74.89
35910;BME280;22004;49.120;-0.200;2023-08-12T18:51:56;101589.19;;;20.52;74.98
35910;BME280;22004;49.120;-0.200;2023-08-12T18:54:21;101595.28;;;20.29;76.55
35910;BME280;22004;49.120;-0.200;2023-08-12T18:56:47;101589.28;;;20.38;75.07
35910;BME280;22004;49.120;-0.200;2023-08-12T18:59:12;101600.09;;;20.52;75.29
35910;BME280;22004;49.120;-0.200;2023-08-12T19:01:37;101605.66;;;20.38;76.54
35910;BME280;22004;49.120;-0.200;2023-08-12T19:04:03;101605.88;;;20.37;75.90
35910;BME280;22004;49.120;-0.200;2023-08-12T19:06:30;101605.97;;;20.30;76.40
35910;BME280;22004;49.120;-0.200;2023-08-12T19:08:55;101613.63;;;20.40;75.99
35910;BME280;22004;49.120;-0.200;2023-08-12T19:11:21;101608.69;;;20.30;76.89
35910;BME280;22004;49.120;-0.200;2023-08-12T19:13:47;101607.28;;;20.21;77.48
35910;BME280;22004;49.120;-0.200;2023-08-12T19:16:13;101610.03;;;20.21;76.60
35910;BME280;22004;49.120;-0.200;2023-08-12T19:18:38;101603.91;;;20.26;76.75
35910;BME280;22004;49.120;-0.200;2023-08-12T19:21:04;101614.81;;;20.01;77.28
35910;BME280;22004;49.120;-0.200;2023-08-12T19:23:29;101610.59;;;20.05;77.36
35910;BME280;22004;49.120;-0.200;2023-08-12T19:25:54;101610.44;;;19.93;77.54
35910;BME280;22004;49.120;-0.200;2023-08-12T19:28:20;101614.34;;;20.04;77.68
35910;BME280;22004;49.120;-0.200;2023-08-12T19:30:49;101618.97;;;20.03;77.34
35910;BME280;22004;49.120;-0.200;2023-08-12T19:33:15;101615.31;;;19.91;78.03
35910;BME280;22004;49.120;-0.200;2023-08-12T19:35:40;101616.97;;;19.92;77.25
35910;BME280;22004;49.120;-0.200;2023-08-12T19:38:13;101619.25;;;19.95;75.61
35910;BME280;22004;49.120;-0.200;2023-08-12T19:40:39;101609.69;;;19.86;76.12
35910;BME280;22004;49.120;-0.200;2023-08-12T19:43:04;101617.50;;;19.76;76.97
35910;BME280;22004;49.120;-0.200;2023-08-12T19:45:30;101618.50;;;19.81;77.10
35910;BME280;22004;49.120;-0.200;2023-08-12T19:47:55;101616.44;;;19.77;77.12
35910;BME280;22004;49.120;-0.200;2023-08-12T19:50:21;101615.38;;;19.78;77.96
35910;BME280;22004;49.120;-0.200;2023-08-12T19:52:46;101625.91;;;19.74;78.09
35910;BME280;22004;49.120;-0.200;2023-08-12T19:55:12;101627.66;;;19.62;78.59
35910;BME280;22004;49.120;-0.200;2023-08-12T19:57:38;101622.31;;;19.74;78.48
35910;BME280;22004;49.120;-0.200;2023-08-12T20:00:04;101626.84;;;19.55;78.90
35910;BME280;22004;49.120;-0.200;2023-08-12T20:02:30;101629.13;;;19.65;78.41
35910;BME280;22004;49.120;-0.200;2023-08-12T20:04:57;101624.69;;;19.63;77.92
35910;BME280;22004;49.120;-0.200;2023-08-12T20:07:23;101632.28;;;19.61;78.79
35910;BME280;22004;49.120;-0.200;2023-08-12T20:09:49;101631.44;;;19.54;78.90
35910;BME280;22004;49.120;-0.200;2023-08-12T20:12:14;101626.47;;;19.45;78.53
35910;BME280;22004;49.120;-0.200;2023-08-12T20:14:39;101632.75;;;19.45;78.90
35910;BME280;22004;49.120;-0.200;2023-08-12T20:17:05;101631.97;;;19.31;79.23
35910;BME280;22004;49.120;-0.200;2023-08-12T20:19:33;101623.53;;;19.46;79.24
35910;BME280;22004;49.120;-0.200;2023-08-12T20:21:59;101627.09;;;19.47;78.55
35910;BME280;22004;49.120;-0.200;2023-08-12T20:24:24;101627.31;;;19.45;79.03
35910;BME280;22004;49.120;-0.200;2023-08-12T20:26:49;101625.28;;;19.27;78.78
35910;BME280;22004;49.120;-0.200;2023-08-12T20:29:15;101627.13;;;19.40;79.22
35910;BME280;22004;49.120;-0.200;2023-08-12T20:31:40;101635.53;;;19.32;79.03
35910;BME280;22004;49.120;-0.200;2023-08-12T20:34:05;101629.06;;;19.26;78.84
35910;BME280;22004;49.120;-0.200;2023-08-12T20:36:31;101631.47;;;19.09;79.47
35910;BME280;22004;49.120;-0.200;2023-08-12T20:38:56;101622.16;;;19.30;78.98
35910;BME280;22004;49.120;-0.200;2023-08-12T20:41:22;101625.06;;;19.29;79.36
35910;BME280;22004;49.120;-0.200;2023-08-12T20:43:47;101634.25;;;19.41;79.58
35910;BME280;22004;49.120;-0.200;2023-08-12T20:46:13;101638.22;;;19.38;79.63
35910;BME280;22004;49.120;-0.200;2023-08-12T20:48:38;101634.28;;;19.28;80.01
35910;BME280;22004;49.120;-0.200;2023-08-12T20:51:03;101626.59;;;19.18;79.99
35910;BME280;22004;49.120;-0.200;2023-08-12T20:53:29;101632.69;;;19.14;79.98
35910;BME280;22004;49.120;-0.200;2023-08-12T20:55:56;101624.91;;;19.17;80.38
35910;BME280;22004;49.120;-0.200;2023-08-12T20:58:22;101627.66;;;19.17;79.74
35910;BME280;22004;49.120;-0.200;2023-08-12T21:00:47;101627.88;;;19.16;80.49
35910;BME280;22004;49.120;-0.200;2023-08-12T21:03:12;101630.16;;;19.19;80.77
35910;BME280;22004;49.120;-0.200;2023-08-12T21:05:38;101633.31;;;19.16;80.61
35910;BME280;22004;49.120;-0.200;2023-08-12T21:08:04;101637.88;;;19.22;80.46
35910;BME280;22004;49.120;-0.200;2023-08-12T21:10:29;101629.53;;;19.17;80.16
35910;BME280;22004;49.120;-0.200;2023-08-12T21:12:55;101638.47;;;19.30;80.27
35910;BME280;22004;49.120;-0.200;2023-08-12T21:15:21;101633.22;;;19.29;80.72
35910;BME280;22004;49.120;-0.200;2023-08-12T21:17:47;101635.34;;;19.27;80.83
35910;BME280;22004;49.120;-0.200;2023-08-12T21:20:12;101620.50;;;19.23;80.35
35910;BME280;22004;49.120;-0.200;2023-08-12T21:22:37;101631.38;;;19.23;80.95
35910;BME280;22004;49.120;-0.200;2023-08-12T21:25:03;101625.16;;;19.16;81.03
35910;BME280;22004;49.120;-0.200;2023-08-12T21:27:29;101624.88;;;19.24;81.37
35910;BME280;22004;49.120;-0.200;2023-08-12T21:29:55;101633.50;;;19.14;81.15
35910;BME280;22004;49.120;-0.200;2023-08-12T21:32:20;101629.47;;;19.30;80.94
35910;BME280;22004;49.120;-0.200;2023-08-12T21:34:45;101632.41;;;19.28;80.52
35910;BME280;22004;49.120;-0.200;2023-08-12T21:37:11;101629.13;;;19.13;81.46
35910;BME280;22004;49.120;-0.200;2023-08-12T21:39:36;101633.28;;;19.22;81.19
35910;BME280;22004;49.120;-0.200;2023-08-12T21:42:01;101636.22;;;19.21;80.99
35910;BME280;22004;49.120;-0.200;2023-08-12T21:44:28;101640.47;;;19.03;81.89
35910;BME280;22004;49.120;-0.200;2023-08-12T21:46:53;101644.22;;;19.09;81.70
35910;BME280;22004;49.120;-0.200;2023-08-12T21:49:18;101634.59;;;19.06;81.73
35910;BME280;22004;49.120;-0.200;2023-08-12T21:51:44;101639.44;;;18.98;81.70
35910;BME280;22004;49.120;-0.200;2023-08-12T21:54:10;101636.38;;;18.54;83.74
35910;BME280;22004;49.120;-0.200;2023-08-12T21:56:35;101642.00;;;18.79;83.25
35910;BME280;22004;49.120;-0.200;2023-08-12T21:59:00;101636.78;;;18.78;83.26
35910;BME280;22004;49.120;-0.200;2023-08-12T22:01:26;101638.00;;;18.89;83.03
35910;BME280;22004;49.120;-0.200;2023-08-12T22:03:51;101638.03;;;18.82;83.39
35910;BME280;22004;49.120;-0.200;2023-08-12T22:06:17;101631.31;;;18.84;83.18
35910;BME280;22004;49.120;-0.200;2023-08-12T22:08:42;101637.03;;;18.70;83.58
35910;BME280;22004;49.120;-0.200;2023-08-12T22:11:07;101636.38;;;18.34;85.53
35910;BME280;22004;49.120;-0.200;2023-08-12T22:13:33;101627.63;;;18.19;85.74
35910;BME280;22004;49.120;-0.200;2023-08-12T22:15:58;101629.69;;;18.37;84.90
35910;BME280;22004;49.120;-0.200;2023-08-12T22:18:23;101632.00;;;18.27;85.16
35910;BME280;22004;49.120;-0.200;2023-08-12T22:20:51;101626.38;;;18.35;85.04
35910;BME280;22004;49.120;-0.200;2023-08-12T22:23:16;101634.09;;;18.71;84.24
35910;BME280;22004;49.120;-0.200;2023-08-12T22:25:41;101628.59;;;18.65;84.27
35910;BME280;22004;49.120;-0.200;2023-08-12T22:28:07;101632.22;;;18.32;84.76
35910;BME280;22004;49.120;-0.200;2023-08-12T22:30:32;101630.50;;;18.57;84.65
35910;BME280;22004;49.120;-0.200;2023-08-12T22:32:57;101628.00;;;18.56;83.63
35910;BME280;22004;49.120;-0.200;2023-08-12T22:35:23;101630.91;;;18.68;83.59
35910;BME280;22004;49.120;-0.200;2023-08-12T22:37:48;101635.31;;;18.49;84.01
35910;BME280;22004;49.120;-0.200;2023-08-12T22:40:13;101641.00;;;18.27;84.42
35910;BME280;22004;49.120;-0.200;2023-08-12T22:42:39;101633.25;;;18.24;84.92
35910;BME280;22004;49.120;-0.200;2023-08-12T22:45:05;101633.69;;;18.41;84.65
35910;BME280;22004;49.120;-0.200;2023-08-12T22:47:32;101627.59;;;18.39;84.20
35910;BME280;22004;49.120;-0.200;2023-08-12T22:49:58;101619.06;;;18.22;84.45
35910;BME280;22004;49.120;-0.200;2023-08-12T22:52:23;101616.75;;;18.32;84.80
35910;BME280;22004;49.120;-0.200;2023-08-12T22:54:48;101605.25;;;18.37;83.79
35910;BME280;22004;49.120;-0.200;2023-08-12T22:57:14;101619.44;;;18.52;84.20
35910;BME280;22004;49.120;-0.200;2023-08-12T22:59:39;101612.34;;;18.38;83.94
35910;BME280;22004;49.120;-0.200;2023-08-12T23:02:04;101605.88;;;18.32;84.48
35910;BME280;22004;49.120;-0.200;2023-08-12T23:04:30;101612.56;;;18.17;84.49
35910;BME280;22004;49.120;-0.200;2023-08-12T23:06:55;101618.84;;;18.24;84.77
35910;BME280;22004;49.120;-0.200;2023-08-12T23:09:20;101622.41;;;18.31;84.94
35910;BME280;22004;49.120;-0.200;2023-08-12T23:11:46;101619.25;;;18.14;85.28
35910;BME280;22004;49.120;-0.200;2023-08-12T23:14:11;101615.06;;;18.25;85.19